sensor_id;sensor_type;location;lat;lon;timestamp;temperature;humidity
53675;DHT22;39574;50.534;8.500;2023-01-31T00:02:09;4.9;99.9
53675;DHT22;39574;50.534;8.500;2023-01-31T00:07:12;4.9;99.9
53675;DHT22;39574;50.534;8.500;2023-01-31T00:12:23;4.9;99.9
53675;DHT22;39574;50.534;8.500;2023-01-31T00:17:24;4.9;99.9
53675;DHT22;39574;50.534;8.500;2023-01-31T00:22:25;4.9;99.9
53675;DHT22;39574;50.534;8.500;2023-01-31T00:31:33;4.8;99.9
53675;DHT22;39574;50.534;8.500;2023-01-31T00:36:47;4.8;99.9
53675;DHT22;39574;50.534;8.500;2023-01-31T00:41:58;4.7;99.9
53675;DHT22;39574;50.534;8.500;2023-01-31T00:47:13;4.6;99.9
53675;DHT22;39574;50.534;8.500;2023-01-31T00:52:14;4.5;99.9
53675;DHT22;39574;50.534;8.500;2023-01-31T01:01:25;4.5;99.9
53675;DHT22;39574;50.534;8.500;2023-01-31T01:06:40;4.4;99.9
53675;DHT22;39574;50.534;8.500;2023-01-31T01:11:41;4.3;99.9
53675;DHT22;39574;50.534;8.500;2023-01-31T01:16:48;4.3;99.9
53675;DHT22;39574;50.534;8.500;2023-01-31T01:21:49;4.3;99.9
53675;DHT22;39574;50.534;8.500;2023-01-31T01:26:51;4.2;99.9
53675;DHT22;39574;50.534;8.500;2023-01-31T01:32:04;4.1;99.9
53675;DHT22;39574;50.534;8.500;2023-01-31T01:41:43;4.1;99.9
53675;DHT22;39574;50.534;8.500;2023-01-31T01:46:56;4.0;99.9
53675;DHT22;39574;50.534;8.500;2023-01-31T01:56:28;4.0;99.9
53675;DHT22;39574;50.534;8.500;2023-01-31T02:01:28;4.1;99.9
53675;DHT22;39574;50.534;8.500;2023-01-31T02:06:37;4.0;99.9
53675;DHT22;39574;50.534;8.500;2023-01-31T02:11:40;4.0;99.9
53675;DHT22;39574;50.534;8.500;2023-01-31T02:16:54;4.0;99.9
53675;DHT22;39574;50.534;8.500;2023-01-31T02:26:05;3.9;99.9
53675;DHT22;39574;50.534;8.500;2023-01-31T02:31:55;3.8;99.9
53675;DHT22;39574;50.534;8.500;2023-01-31T02:36:40;3.8;99.9
53675;DHT22;39574;50.534;8.500;2023-01-31T02:41:49;3.8;99.9
53675;DHT22;39574;50.534;8.500;2023-01-31T02:50:57;3.8;99.9
53675;DHT22;39574;50.534;8.500;2023-01-31T02:56:08;3.9;99.9
53675;DHT22;39574;50.534;8.500;2023-01-31T03:01:11;3.9;99.9
53675;DHT22;39574;50.534;8.500;2023-01-31T03:06:56;3.9;99.9
53675;DHT22;39574;50.534;8.500;2023-01-31T03:11:39;3.8;99.9
53675;DHT22;39574;50.534;8.500;2023-01-31T03:21:06;3.8;99.9
53675;DHT22;39574;50.534;8.500;2023-01-31T03:26:18;3.7;99.9
53675;DHT22;39574;50.534;8.500;2023-01-31T03:31:34;3.7;99.9
53675;DHT22;39574;50.534;8.500;2023-01-31T03:41:01;3.7;99.9
53675;DHT22;39574;50.534;8.500;2023-01-31T03:46:10;3.7;99.9
53675;DHT22;39574;50.534;8.500;2023-01-31T03:51:13;3.7;99.9
53675;DHT22;39574;50.534;8.500;2023-01-31T03:56:27;3.7;99.9
53675;DHT22;39574;50.534;8.500;2023-01-31T04:05:44;3.7;99.9
53675;DHT22;39574;50.534;8.500;2023-01-31T04:10:51;3.6;99.9
53675;DHT22;39574;50.534;8.500;2023-01-31T04:16:03;3.5;99.9
53675;DHT22;39574;50.534;8.500;2023-01-31T04:21:15;3.4;99.9
53675;DHT22;39574;50.534;8.500;2023-01-31T04:26:16;3.4;99.9
53675;DHT22;39574;50.534;8.500;2023-01-31T04:31:16;3.4;99.9
53675;DHT22;39574;50.534;8.500;2023-01-31T04:40:25;3.3;99.9
53675;DHT22;39574;50.534;8.500;2023-01-31T04:45:53;3.3;99.9
53675;DHT22;39574;50.534;8.500;2023-01-31T04:50:57;3.2;99.9
53675;DHT22;39574;50.534;8.500;2023-01-31T04:56:11;3.2;99.9
53675;DHT22;39574;50.534;8.500;2023-01-31T05:05:37;3.1;99.9
53675;DHT22;39574;50.534;8.500;2023-01-31T05:10:48;3.1;99.9
53675;DHT22;39574;50.534;8.500;2023-01-31T05:15:51;3.0;99.9
53675;DHT22;39574;50.534;8.500;2023-01-31T05:21:03;2.9;99.9
53675;DHT22;39574;50.534;8.500;2023-01-31T05:30:40;2.8;99.9
53675;DHT22;39574;50.534;8.500;2023-01-31T05:35:42;2.7;99.9
53675;DHT22;39574;50.534;8.500;2023-01-31T05:40:52;2.7;99.9
53675;DHT22;39574;50.534;8.500;2023-01-31T05:50:24;2.6;99.9
53675;DHT22;39574;50.534;8.500;2023-01-31T05:55:34;2.6;99.9
53675;DHT22;39574;50.534;8.500;2023-01-31T06:00:39;2.6;99.9
53675;DHT22;39574;50.534;8.500;2023-01-31T06:05:47;2.6;99.9
53675;DHT22;39574;50.534;8.500;2023-01-31T06:15:17;2.6;99.9
53675;DHT22;39574;50.534;8.500;2023-01-31T06:20:27;2.6;99.9
53675;DHT22;39574;50.534;8.500;2023-01-31T06:25:30;2.6;99.9
53675;DHT22;39574;50.534;8.500;2023-01-31T06:30:42;2.7;99.9
53675;DHT22;39574;50.534;8.500;2023-01-31T06:35:48;2.7;99.9
53675;DHT22;39574;50.534;8.500;2023-01-31T06:45:20;2.7;99.9
53675;DHT22;39574;50.534;8.500;2023-01-31T06:50:24;2.7;99.9
53675;DHT22;39574;50.534;8.500;2023-01-31T06:55:35;2.7;99.9
53675;DHT22;39574;50.534;8.500;2023-01-31T07:04:54;2.7;99.9
53675;DHT22;39574;50.534;8.500;2023-01-31T07:10:03;2.7;99.9
53675;DHT22;39574;50.534;8.500;2023-01-31T07:15:14;2.7;99.9
53675;DHT22;39574;50.534;8.500;2023-01-31T07:20:28;2.8;99.9
53675;DHT22;39574;50.534;8.500;2023-01-31T07:29:55;2.9;99.9
53675;DHT22;39574;50.534;8.500;2023-01-31T07:35:08;2.9;99.9
53675;DHT22;39574;50.534;8.500;2023-01-31T07:40:19;2.9;99.9
53675;DHT22;39574;50.534;8.500;2023-01-31T07:45:20;2.9;99.9
53675;DHT22;39574;50.534;8.500;2023-01-31T07:55:00;2.9;99.9
53675;DHT22;39574;50.534;8.500;2023-01-31T08:00:05;3.0;99.9
53675;DHT22;39574;50.534;8.500;2023-01-31T08:05:16;2.9;99.9
53675;DHT22;39574;50.534;8.500;2023-01-31T08:14:43;3.0;99.9
53675;DHT22;39574;50.534;8.500;2023-01-31T08:19:53;3.0;99.9
53675;DHT22;39574;50.534;8.500;2023-01-31T08:24:58;3.0;99.9
53675;DHT22;39574;50.534;8.500;2023-01-31T08:49:43;3.3;99.9
53675;DHT22;39574;50.534;8.500;2023-01-31T08:54:49;3.3;99.9
53675;DHT22;39574;50.534;8.500;2023-01-31T09:00:05;3.3;99.9
53675;DHT22;39574;50.534;8.500;2023-01-31T09:09:27;3.4;99.9
53675;DHT22;39574;50.534;8.500;2023-01-31T09:14:40;3.4;99.9
53675;DHT22;39574;50.534;8.500;2023-01-31T09:19:42;3.5;99.9
53675;DHT22;39574;50.534;8.500;2023-01-31T09:24:53;3.5;99.9
53675;DHT22;39574;50.534;8.500;2023-01-31T09:34:32;3.6;99.9
53675;DHT22;39574;50.534;8.500;2023-01-31T09:39:47;3.6;99.9
53675;DHT22;39574;50.534;8.500;2023-01-31T09:44:55;3.7;99.9
53675;DHT22;39574;50.534;8.500;2023-01-31T09:54:18;3.7;99.9
53675;DHT22;39574;50.534;8.500;2023-01-31T10:04:41;3.9;99.9
53675;DHT22;39574;50.534;8.500;2023-01-31T10:13:52;3.9;99.9
53675;DHT22;39574;50.534;8.500;2023-01-31T10:19:21;3.9;99.9
53675;DHT22;39574;50.534;8.500;2023-01-31T10:24:23;3.9;99.9
53675;DHT22;39574;50.534;8.500;2023-01-31T10:29:38;4.0;99.9
53675;DHT22;39574;50.534;8.500;2023-01-31T10:38:58;4.0;99.9
53675;DHT22;39574;50.534;8.500;2023-01-31T10:44:00;4.1;99.9
53675;DHT22;39574;50.534;8.500;2023-01-31T10:49:11;4.1;99.9
53675;DHT22;39574;50.534;8.500;2023-01-31T10:54:29;4.1;99.9
53675;DHT22;39574;50.534;8.500;2023-01-31T10:59:28;4.2;99.9
53675;DHT22;39574;50.534;8.500;2023-01-31T11:08:41;4.2;99.9
53675;DHT22;39574;50.534;8.500;2023-01-31T11:13:55;4.2;99.9
53675;DHT22;39574;50.534;8.500;2023-01-31T11:19:12;4.2;99.9
53675;DHT22;39574;50.534;8.500;2023-01-31T11:24:14;4.2;99.9
53675;DHT22;39574;50.534;8.500;2023-01-31T11:29:26;4.2;99.9
53675;DHT22;39574;50.534;8.500;2023-01-31T11:38:47;4.2;99.9
53675;DHT22;39574;50.534;8.500;2023-01-31T11:44:09;4.3;99.9
53675;DHT22;39574;50.534;8.500;2023-01-31T11:49:08;4.3;99.9
53675;DHT22;39574;50.534;8.500;2023-01-31T11:54:10;4.3;99.9
53675;DHT22;39574;50.534;8.500;2023-01-31T11:59:15;4.2;99.9
53675;DHT22;39574;50.534;8.500;2023-01-31T12:08:40;4.3;99.9
53675;DHT22;39574;50.534;8.500;2023-01-31T12:13:44;4.3;99.9
53675;DHT22;39574;50.534;8.500;2023-01-31T12:18:52;4.3;99.9
53675;DHT22;39574;50.534;8.500;2023-01-31T12:23:54;4.3;99.9
53675;DHT22;39574;50.534;8.500;2023-01-31T12:29:07;4.3;99.9
53675;DHT22;39574;50.534;8.500;2023-01-31T12:34:09;4.4;99.9
53675;DHT22;39574;50.534;8.500;2023-01-31T12:43:46;4.4;99.9
53675;DHT22;39574;50.534;8.500;2023-01-31T12:49:08;4.5;99.9
53675;DHT22;39574;50.534;8.500;2023-01-31T12:54:01;4.5;99.9
53675;DHT22;39574;50.534;8.500;2023-01-31T13:03:30;4.6;99.9
53675;DHT22;39574;50.534;8.500;2023-01-31T13:08:37;4.7;99.9
53675;DHT22;39574;50.534;8.500;2023-01-31T13:23:10;4.6;99.9
53675;DHT22;39574;50.534;8.500;2023-01-31T13:28:22;4.6;99.9
53675;DHT22;39574;50.534;8.500;2023-01-31T13:33:31;4.6;99.9
53675;DHT22;39574;50.534;8.500;2023-01-31T13:38:44;4.6;99.9
53675;DHT22;39574;50.534;8.500;2023-01-31T13:48:03;4.5;99.9
53675;DHT22;39574;50.534;8.500;2023-01-31T13:53:11;4.5;99.9
53675;DHT22;39574;50.534;8.500;2023-01-31T13:58:23;4.4;99.9
53675;DHT22;39574;50.534;8.500;2023-01-31T14:08:24;4.4;99.9
53675;DHT22;39574;50.534;8.500;2023-01-31T14:13:19;4.4;99.9
53675;DHT22;39574;50.534;8.500;2023-01-31T14:18:04;4.3;99.9
53675;DHT22;39574;50.534;8.500;2023-01-31T14:23:30;4.3;99.9
53675;DHT22;39574;50.534;8.500;2023-01-31T14:28:27;4.3;99.9
53675;DHT22;39574;50.534;8.500;2023-01-31T14:33:31;4.3;99.9
53675;DHT22;39574;50.534;8.500;2023-01-31T14:43:00;4.3;99.9
53675;DHT22;39574;50.534;8.500;2023-01-31T14:48:12;4.4;99.9
53675;DHT22;39574;50.534;8.500;2023-01-31T14:53:16;4.4;99.9
53675;DHT22;39574;50.534;8.500;2023-01-31T14:58:25;4.4;99.9
53675;DHT22;39574;50.534;8.500;2023-01-31T15:08:05;4.4;99.9
53675;DHT22;39574;50.534;8.500;2023-01-31T15:13:26;4.5;99.9
53675;DHT22;39574;50.534;8.500;2023-01-31T15:18:09;4.5;99.9
53675;DHT22;39574;50.534;8.500;2023-01-31T15:23:17;4.6;99.9
53675;DHT22;39574;50.534;8.500;2023-01-31T15:32:36;4.6;99.9
53675;DHT22;39574;50.534;8.500;2023-01-31T15:37:54;4.7;99.9
53675;DHT22;39574;50.534;8.500;2023-01-31T15:43:13;4.7;99.9
53675;DHT22;39574;50.534;8.500;2023-01-31T15:47:56;4.7;99.9
53675;DHT22;39574;50.534;8.500;2023-01-31T15:53:13;4.7;99.9
53675;DHT22;39574;50.534;8.500;2023-01-31T16:02:36;4.7;99.9
53675;DHT22;39574;50.534;8.500;2023-01-31T16:07:49;4.7;99.9
53675;DHT22;39574;50.534;8.500;2023-01-31T16:13:02;4.7;99.9
53675;DHT22;39574;50.534;8.500;2023-01-31T16:22:30;4.7;99.9
53675;DHT22;39574;50.534;8.500;2023-01-31T16:27:40;4.6;99.9
53675;DHT22;39574;50.534;8.500;2023-01-31T16:32:42;4.5;99.9
53675;DHT22;39574;50.534;8.500;2023-01-31T16:37:59;4.5;99.9
53675;DHT22;39574;50.534;8.500;2023-01-31T16:47:30;4.5;99.9
53675;DHT22;39574;50.534;8.500;2023-01-31T16:52:27;4.5;99.9
53675;DHT22;39574;50.534;8.500;2023-01-31T16:57:34;4.5;99.9
53675;DHT22;39574;50.534;8.500;2023-01-31T17:02:38;4.5;99.9
53675;DHT22;39574;50.534;8.500;2023-01-31T17:07:47;4.4;99.9
53675;DHT22;39574;50.534;8.500;2023-01-31T17:17:19;4.5;99.9
53675;DHT22;39574;50.534;8.500;2023-01-31T17:22:28;4.5;99.9
53675;DHT22;39574;50.534;8.500;2023-01-31T17:27:30;4.5;99.9
53675;DHT22;39574;50.534;8.500;2023-01-31T17:32:43;4.5;99.9
53675;DHT22;39574;50.534;8.500;2023-01-31T17:37:43;4.5;99.9
53675;DHT22;39574;50.534;8.500;2023-01-31T17:47:09;4.5;99.9
53675;DHT22;39574;50.534;8.500;2023-01-31T17:52:09;4.5;99.9
53675;DHT22;39574;50.534;8.500;2023-01-31T17:57:22;4.5;99.9
53675;DHT22;39574;50.534;8.500;2023-01-31T18:02:37;4.5;99.9
53675;DHT22;39574;50.534;8.500;2023-01-31T18:12:01;4.5;99.9
53675;DHT22;39574;50.534;8.500;2023-01-31T18:17:02;4.5;99.9
53675;DHT22;39574;50.534;8.500;2023-01-31T18:22:10;4.5;99.9
53675;DHT22;39574;50.534;8.500;2023-01-31T18:27:24;4.5;99.9
53675;DHT22;39574;50.534;8.500;2023-01-31T18:32:27;4.5;99.9
53675;DHT22;39574;50.534;8.500;2023-01-31T18:41:53;4.5;99.9
53675;DHT22;39574;50.534;8.500;2023-01-31T18:47:08;4.6;99.9
53675;DHT22;39574;50.534;8.500;2023-01-31T18:52:17;4.5;99.9
53675;DHT22;39574;50.534;8.500;2023-01-31T19:01:48;4.5;99.9
53675;DHT22;39574;50.534;8.500;2023-01-31T19:07:00;4.5;99.9
53675;DHT22;39574;50.534;8.500;2023-01-31T19:12:02;4.5;99.9
53675;DHT22;39574;50.534;8.500;2023-01-31T19:17:16;4.5;99.9
53675;DHT22;39574;50.534;8.500;2023-01-31T19:26:50;4.5;99.9
53675;DHT22;39574;50.534;8.500;2023-01-31T19:31:52;4.6;99.9
53675;DHT22;39574;50.534;8.500;2023-01-31T19:36:55;4.6;99.9
53675;DHT22;39574;50.534;8.500;2023-01-31T19:42:09;4.6;99.9
53675;DHT22;39574;50.534;8.500;2023-01-31T19:51:47;4.6;99.9
53675;DHT22;39574;50.534;8.500;2023-01-31T19:57:01;4.7;99.9
53675;DHT22;39574;50.534;8.500;2023-01-31T20:02:01;4.8;99.9
53675;DHT22;39574;50.534;8.500;2023-01-31T20:07:02;4.8;99.9
53675;DHT22;39574;50.534;8.500;2023-01-31T20:16:39;4.8;99.9
53675;DHT22;39574;50.534;8.500;2023-01-31T20:21:44;4.9;99.9
53675;DHT22;39574;50.534;8.500;2023-01-31T20:26:57;4.9;99.9
53675;DHT22;39574;50.534;8.500;2023-01-31T20:36:33;5.0;99.9
53675;DHT22;39574;50.534;8.500;2023-01-31T20:41:35;5.0;99.9
53675;DHT22;39574;50.534;8.500;2023-01-31T20:46:47;5.0;99.9
53675;DHT22;39574;50.534;8.500;2023-01-31T20:51:48;5.0;99.9
53675;DHT22;39574;50.534;8.500;2023-01-31T21:00:58;5.0;99.9
53675;DHT22;39574;50.534;8.500;2023-01-31T21:06:11;5.0;99.9
53675;DHT22;39574;50.534;8.500;2023-01-31T21:11:13;4.9;99.9
53675;DHT22;39574;50.534;8.500;2023-01-31T21:16:23;4.9;99.9
53675;DHT22;39574;50.534;8.500;2023-01-31T21:21:29;4.9;99.9
53675;DHT22;39574;50.534;8.500;2023-01-31T21:26:36;4.9;99.9
53675;DHT22;39574;50.534;8.500;2023-01-31T21:31:37;4.8;99.9
53675;DHT22;39574;50.534;8.500;2023-01-31T21:40:46;4.8;99.9
53675;DHT22;39574;50.534;8.500;2023-01-31T21:46:01;4.8;99.9
53675;DHT22;39574;50.534;8.500;2023-01-31T21:51:04;4.7;99.9
53675;DHT22;39574;50.534;8.500;2023-01-31T21:56:18;4.8;99.9
53675;DHT22;39574;50.534;8.500;2023-01-31T22:01:30;4.7;99.9
53675;DHT22;39574;50.534;8.500;2023-01-31T22:10:57;4.8;99.9
53675;DHT22;39574;50.534;8.500;2023-01-31T22:16:12;4.7;99.9
53675;DHT22;39574;50.534;8.500;2023-01-31T22:21:25;4.7;99.9
53675;DHT22;39574;50.534;8.500;2023-01-31T22:30:52;4.7;99.9
53675;DHT22;39574;50.534;8.500;2023-01-31T22:36:03;4.7;99.9
53675;DHT22;39574;50.534;8.500;2023-01-31T22:41:05;4.7;99.9
53675;DHT22;39574;50.534;8.500;2023-01-31T22:46:19;4.8;99.9
53675;DHT22;39574;50.534;8.500;2023-01-31T22:55:42;4.7;99.9
53675;DHT22;39574;50.534;8.500;2023-01-31T23:00:44;4.7;99.9
53675;DHT22;39574;50.534;8.500;2023-01-31T23:11:09;4.7;99.9
53675;DHT22;39574;50.534;8.500;2023-01-31T23:16:14;4.6;99.9
53675;DHT22;39574;50.534;8.500;2023-01-31T23:25:38;4.5;99.9
53675;DHT22;39574;50.534;8.500;2023-01-31T23:30:47;4.5;99.9
53675;DHT22;39574;50.534;8.500;2023-01-31T23:35:50;4.6;99.9
53675;DHT22;39574;50.534;8.500;2023-01-31T23:41:01;4.6;99.9
53675;DHT22;39574;50.534;8.500;2023-01-31T23:46:01;4.6;99.9
53675;DHT22;39574;50.534;8.500;2023-01-31T23:55:29;4.5;99.9
